Skip Navigation Links Skip Navigation Links

Current Weather

Cape Girardeau Regional, Cape Girardeau, Mo.

For information only: do not use for flight planning or navigation.
Latest weather
Observation time Thursday, January 27, 2022 10:53 PM CST
Local time Thursday, January 27, 2022 10:59 PM CST
Flight conditions Visual Meteorological Conditions
Winds
Wind direction West-Northwest (300°)
Wind speed 6 mph
Visibility 10 mi.
Sky condition
Ceiling 4,700 ft. overcast
Cloud layer overcast 4,700 ft.
Temperature 30°F
Dewpoint 26°F
Altimeter 30.27 in.Hg
Derived measurements
Relative humidity 85%
Wind chill 24°F
Density altitude -1958 ft.
Sea-level pressure 30.28 in.Hg
Remarks
Fully automated report.
Automated weather observing station with precipitation discriminator.
METAR KCGI 280453Z AUTO 30005KT 10SM OVC047 M01/M03 A3027 RMK AO2 SLP253 T10111033

Settings

Location code

InnerDrive.Weather 4.0.6770.0 Release CLR 4.0.30319.42000
Copyright ©2018 Inner Drive Technology. All rights reserved. Portions Copyright ©1986-2018 David Braverman.

Find weather

Site navigation


Skip Navigation Links

Place info

Page info

PayPal - The safer, easier way to pay online!

Return home.

Copyright ©2022 Inner Drive Technology. Purveyors of fine, hand-crafted computer software. Page printed 2022-01-28T04:59:48 UTC.